Relatórios de METAR próximas

 

LPAR - Alverca, Portugal
Distance from station: SO 47km
Actualizado: 22/04/2018 15:00
Few Clouds
Few Clouds
 Vento de varies
Vento: varies 0 km/h
Temperatura: 20°C
Ponto de Orvalho: 14°C
Humidade: 69%
Barómetro: 1013 hPa
Nuvens: Few Clouds
Visibilidade: 10 km
Cloud details: Few Clouds 762 m
2018/04/22 14:00 LPAR 221400Z /////KT 9999 FEW025 20/14 Q1013
LPPT - Lisbon/Portela, Portugal
Distance from station: SO 61km
Actualizado: 22/04/2018 15:00
Few Clouds
Few Clouds
 Vento de ENE
Vento: ENE 13 km/h
Temperatura: 21°C
Ponto de Orvalho: 14°C
Humidade: 64%
Barómetro: 1013 hPa
Nuvens: Few Clouds
Visibilidade: 10 km
Cloud details: Few Clouds 762 m
2018/04/22 14:00 LPPT 221400Z 06007KT 350V090 9999 FEW025 21/14 Q1013
 
LPMT - Montijo (por-Afb, Portugal
Distance from station: SO 62km
Actualizado: 22/04/2018 15:00
Few Clouds
Few Clouds
 Vento de NNE
Vento: NNE 15 km/h
Temperatura: 20°C
Ponto de Orvalho: 15°C
Humidade: 73%
Barómetro: 1013 hPa
Nuvens: Few Clouds
Visibilidade: 10 km
Cloud details: Few Clouds 914 m
2018/04/22 14:00 LPMT 221400Z 03008KT 360V070 9999 FEW030 20/15 Q1013
LPST - Sintra/Granja (a, Portugal
Distance from station: OSO 72km
Actualizado: 20/04/2018 17:00
NÃO Actual
Céu Limpo
Céu Limpo
 Vento de ENE
Vento: ENE 7 km/h
Temperatura: 20°C
Ponto de Orvalho: 13°C
Humidade: 64%
Barómetro: 1013 hPa
Resumo: Céu Limpo
Visibilidade: greater than 10 km
2018/04/20 16:00 LPST 201600Z 07004KT CAVOK 20/13 Q1013
 
LPMR - Monte Real(Por-A, Portugal
Distance from station: NNO 80km
Actualizado: 22/04/2018 15:00
Parc. Nublado
Parc. Nublado
 Vento de ONO
Vento: ONO 15 km/h
Temperatura: 20°C
Ponto de Orvalho: 14°C
Humidade: 69%
Barómetro: 1014 hPa
Nuvens: Parc. Nublado
Visibilidade: 10 km
Cloud details: Few Clouds 853 m
Parc. Nublado 1219 m
2018/04/22 14:00 LPMR 221400Z 29008KT 9999 FEW028 SCT040 20/14 Q1014
LPBJ - Beja (por/Ger-Af, Portugal
Distance from station: SSE 139km
Actualizado: 22/04/2018 15:00
Parc. Nublado
Parc. Nublado
 Vento de SSE
Vento: SSE 17 km/h
Temperatura: 20°C
Ponto de Orvalho: 14°C
Humidade: 69%
Barómetro: 1012 hPa
Nuvens: Parc. Nublado
Visibilidade: 10 km
Cloud details: Few Clouds 549 m
Parc. Nublado 671 m
2018/04/22 14:00 LPBJ 221400Z 15009KT 9999 FEW018 SCT022 20/14 Q1012